Time;durP1;ratioP1;P1;durP2;ratioP2;P2;SDS_P1;SDS_P2;PMS_P1;PMS_P2;Temp;Humidity;BMP_temperature;BMP_pressure;BME280_temperature;BME280_humidity;BME280_pressure;Samples;Min_cycle;Max_cycle;Signal;HPM_P1;HPM_P2
2023/05/09 00:01:15;;;;;;;4.63;4.00;;;12.00;99.90;;;;;;5067589;28;20554;-55
2023/05/09 00:03:41;;;;;;;3.40;3.10;;;11.90;99.90;;;;;;5065438;28;20606;-55
2023/05/09 00:06:08;;;;;;;4.80;3.93;;;11.90;99.90;;;;;;5066180;28;20473;-54
2023/05/09 00:08:34;;;;;;;4.33;3.63;;;11.80;99.90;;;;;;5059827;28;20796;-57
2023/05/09 00:11:01;;;;;;;4.33;3.47;;;11.90;99.90;;;;;;5067103;28;20456;-54
2023/05/09 00:13:27;;;;;;;4.10;3.13;;;11.90;99.90;;;;;;5065884;28;20454;-55
2023/05/09 00:15:52;;;;;;;4.03;3.70;;;11.80;99.90;;;;;;5064325;28;20935;-56
2023/05/09 00:18:19;;;;;;;6.80;4.00;;;11.80;99.90;;;;;;5067818;28;20457;-56
2023/05/09 00:20:45;;;;;;;4.20;3.73;;;11.80;99.90;;;;;;5067409;28;20202;-54
2023/05/09 00:23:10;;;;;;;5.40;4.17;;;11.80;99.90;;;;;;5064510;28;21525;-55
2023/05/09 00:25:36;;;;;;;4.10;3.80;;;11.70;99.90;;;;;;5063713;28;20882;-55
2023/05/09 00:28:02;;;;;;;5.80;3.90;;;11.70;99.90;;;;;;5064148;28;20180;-57
2023/05/09 00:30:27;;;;;;;4.77;3.60;;;11.80;99.90;;;;;;5064541;28;20249;-54
2023/05/09 00:32:53;;;;;;;4.53;4.13;;;11.70;99.90;;;;;;5063834;28;20190;-56
2023/05/09 00:35:18;;;;;;;4.67;3.80;;;11.70;99.90;;;;;;5066106;28;20654;-55
2023/05/09 00:37:44;;;;;;;4.80;3.97;;;11.60;99.90;;;;;;5064328;28;20184;-54
2023/05/09 00:40:10;;;;;;;5.80;3.73;;;11.60;99.90;;;;;;5065120;28;21580;-55
2023/05/09 00:42:36;;;;;;;4.20;3.67;;;11.60;99.90;;;;;;5066219;28;20187;-55
2023/05/09 00:45:02;;;;;;;5.63;3.60;;;11.70;99.90;;;;;;5066200;28;20475;-56
2023/05/09 00:47:28;;;;;;;6.00;3.40;;;11.60;99.90;;;;;;5067732;28;20253;-55
2023/05/09 00:49:55;;;;;;;6.33;3.87;;;11.50;99.90;;;;;;5081628;28;20445;-54
2023/05/09 00:52:24;;;;;;;6.53;3.87;;;11.50;99.90;;;;;;5086502;28;20915;-55
2023/05/09 00:54:54;;;;;;;4.37;3.43;;;10.70;99.90;;;;;;5067375;28;20955;-55
2023/05/09 00:57:20;;;;;;;4.20;3.80;;;11.40;99.90;;;;;;5070986;28;20474;-55
2023/05/09 00:59:46;;;;;;;3.77;3.47;;;11.40;99.90;;;;;;5071557;28;20509;-55
2023/05/09 01:02:12;;;;;;;5.80;3.87;;;11.40;99.90;;;;;;5070602;28;20460;-55
2023/05/09 01:04:38;;;;;;;4.63;3.80;;;11.40;99.90;;;;;;5071629;28;20191;-56
2023/05/09 01:07:18;;;;;;;4.93;4.43;;;11.40;99.90;;;;;;5072167;28;20176;-57
2023/05/09 01:10:05;;;;;;;5.87;4.30;;;11.30;99.90;;;;;;5070850;28;20450;-55
2023/05/09 01:13:18;;;;;;;3.93;3.53;;;11.30;99.90;;;;;;5069856;28;20442;-55
2023/05/09 01:16:13;;;;;;;5.40;4.00;;;11.30;99.90;;;;;;5009095;28;21072;-56
2023/05/09 01:18:45;;;;;;;6.03;4.73;;;11.20;99.90;;;;;;5067611;28;20467;-54
2023/05/09 01:21:18;;;;;;;5.50;4.37;;;11.20;99.90;;;;;;5071770;28;20591;-54
2023/05/09 01:23:43;;;;;;;5.53;4.37;;;11.20;99.90;;;;;;5066855;28;20510;-55
2023/05/09 01:26:33;;;;;;;4.03;3.50;;;11.30;99.90;;;;;;5068311;28;20486;-53
2023/05/09 01:29:11;;;;;;;4.17;3.40;;;11.10;99.90;;;;;;5069117;28;20179;-55
2023/05/09 01:31:39;;;;;;;9.23;4.40;;;11.10;99.90;;;;;;5071090;28;20490;-54
2023/05/09 01:34:07;;;;;;;4.63;3.80;;;11.20;99.90;;;;;;5067008;28;20461;-55
2023/05/09 01:36:37;;;;;;;7.40;4.10;;;11.10;99.90;;;;;;5067734;28;20538;-54
2023/05/09 01:39:04;;;;;;;4.43;3.90;;;11.10;99.90;;;;;;5067374;28;20452;-54
2023/05/09 01:41:33;;;;;;;5.60;3.57;;;11.00;99.90;;;;;;5065525;28;20810;-55
2023/05/09 01:44:02;;;;;;;4.90;4.40;;;11.00;99.90;;;;;;5067425;28;20450;-55
2023/05/09 01:46:28;;;;;;;3.50;3.20;;;10.90;99.90;;;;;;5064494;28;20462;-56
2023/05/09 01:48:56;;;;;;;9.23;4.00;;;10.90;99.90;;;;;;5065326;28;20437;-55
2023/05/09 01:51:24;;;;;;;4.43;3.70;;;10.90;99.90;;;;;;5069772;28;20442;-54
2023/05/09 01:53:51;;;;;;;4.57;3.80;;;10.90;99.90;;;;;;5066296;28;20550;-53
2023/05/09 01:56:18;;;;;;;6.00;4.20;;;10.90;99.90;;;;;;5065837;28;20489;-55
2023/05/09 01:58:47;;;;;;;4.97;4.47;;;10.90;99.90;;;;;;5068895;28;20533;-56
2023/05/09 02:01:13;;;;;;;5.00;4.40;;;10.80;99.90;;;;;;5102931;28;20842;-54
2023/05/09 02:03:40;;;;;;;4.50;4.10;;;10.80;99.90;;;;;;5068577;28;20498;-56
2023/05/09 02:06:07;;;;;;;4.30;3.87;;;10.80;99.90;;;;;;5068010;28;20501;-55
2023/05/09 02:08:32;;;;;;;4.50;3.87;;;10.80;99.90;;;;;;5069163;28;20446;-55
2023/05/09 02:10:58;;;;;;;5.70;4.33;;;10.70;99.90;;;;;;5066758;28;20446;-56
2023/05/09 02:13:24;;;;;;;12.60;4.07;;;10.70;99.90;;;;;;5070488;28;20212;-55
2023/05/09 02:15:49;;;;;;;8.03;3.97;;;10.70;99.90;;;;;;5068815;28;20191;-54
2023/05/09 02:18:15;;;;;;;5.03;4.20;;;10.60;99.90;;;;;;5072381;28;20211;-55
2023/05/09 02:20:41;;;;;;;4.20;3.80;;;10.60;99.90;;;;;;5068172;28;20963;-55
2023/05/09 02:23:07;;;;;;;4.30;3.90;;;10.60;99.90;;;;;;5068616;28;20187;-53
2023/05/09 02:25:33;;;;;;;4.63;4.10;;;10.60;99.90;;;;;;5070823;28;20326;-56
2023/05/09 02:28:00;;;;;;;5.40;4.33;;;10.60;99.90;;;;;;5068334;28;20875;-55
2023/05/09 02:30:30;;;;;;;4.00;3.60;;;10.60;99.90;;;;;;5068363;28;20443;-56
2023/05/09 02:33:02;;;;;;;5.17;3.77;;;10.60;99.90;;;;;;5068249;28;20468;-55
2023/05/09 02:35:28;;;;;;;5.60;3.70;;;10.50;99.90;;;;;;5067064;28;20445;-56
2023/05/09 02:37:55;;;;;;;6.10;3.80;;;10.40;99.90;;;;;;5066697;28;20679;-54
2023/05/09 02:40:22;;;;;;;9.60;4.40;;;10.50;99.90;;;;;;5067286;28;20449;-55
2023/05/09 02:42:47;;;;;;;4.93;4.43;;;10.50;99.90;;;;;;5068766;28;20450;-54
2023/05/09 02:45:13;;;;;;;5.87;4.23;;;10.40;99.90;;;;;;5067852;28;20469;-56
2023/05/09 02:47:39;;;;;;;5.37;3.87;;;10.40;99.90;;;;;;5066137;28;20187;-54
2023/05/09 02:50:05;;;;;;;4.67;3.50;;;10.40;99.90;;;;;;5066419;28;20195;-55
2023/05/09 02:52:31;;;;;;;3.67;3.30;;;10.40;99.90;;;;;;5066309;28;20218;-53
2023/05/09 02:54:57;;;;;;;6.73;4.00;;;10.40;99.90;;;;;;5070209;28;20450;-56
2023/05/09 02:57:22;;;;;;;6.60;4.20;;;10.40;99.90;;;;;;5066559;28;20223;-56
2023/05/09 02:59:48;;;;;;;4.13;3.73;;;10.30;99.90;;;;;;5065709;28;20465;-55
2023/05/09 03:02:14;;;;;;;4.23;3.83;;;10.20;99.90;;;;;;5065967;28;20188;-56
2023/05/09 03:04:40;;;;;;;7.83;5.10;;;10.30;99.90;;;;;;5071885;28;20717;-54
2023/05/09 03:07:05;;;;;;;4.47;4.07;;;10.20;99.90;;;;;;5067691;28;20644;-55
2023/05/09 03:09:31;;;;;;;5.93;3.90;;;10.20;99.90;;;;;;5064694;28;20470;-54
2023/05/09 03:11:56;;;;;;;4.40;4.00;;;10.10;99.90;;;;;;5065623;28;20188;-55
2023/05/09 03:14:22;;;;;;;4.00;3.70;;;10.10;99.90;;;;;;5069026;28;20249;-58
2023/05/09 03:16:48;;;;;;;4.07;3.60;;;10.20;99.90;;;;;;5065792;28;20741;-55
2023/05/09 03:19:13;;;;;;;5.57;3.87;;;10.10;99.90;;;;;;5066881;28;20187;-54
2023/05/09 03:21:40;;;;;;;4.40;3.60;;;10.10;99.90;;;;;;5065084;28;20208;-56
2023/05/09 03:24:07;;;;;;;5.00;4.10;;;10.10;99.90;;;;;;5067416;28;20915;-58
2023/05/09 03:26:34;;;;;;;4.37;3.43;;;10.10;99.90;;;;;;5067082;28;20461;-55
2023/05/09 03:29:00;;;;;;;4.20;3.80;;;10.10;99.90;;;;;;5067970;28;20453;-53
2023/05/09 03:31:26;;;;;;;5.37;3.93;;;10.00;99.90;;;;;;5063753;28;20449;-55
2023/05/09 03:33:51;;;;;;;5.80;3.80;;;10.10;99.90;;;;;;5068864;28;20935;-53
2023/05/09 03:36:17;;;;;;;5.03;4.00;;;10.20;99.90;;;;;;5069190;28;20275;-56
2023/05/09 03:38:43;;;;;;;4.30;3.50;;;10.30;99.90;;;;;;5067087;28;20184;-55
2023/05/09 03:41:09;;;;;;;4.70;4.10;;;10.40;99.90;;;;;;5062886;28;20191;-55
2023/05/09 03:43:34;;;;;;;7.60;4.03;;;10.30;99.90;;;;;;5067555;28;20661;-55
2023/05/09 03:46:00;;;;;;;4.50;4.10;;;10.30;99.90;;;;;;5066909;28;20211;-54
2023/05/09 03:48:25;;;;;;;3.90;3.60;;;10.30;99.90;;;;;;5068982;28;20646;-56
2023/05/09 03:50:51;;;;;;;6.97;3.87;;;10.30;99.90;;;;;;5069428;28;20191;-54
2023/05/09 03:53:17;;;;;;;4.83;4.30;;;10.30;99.90;;;;;;5062954;28;20197;-53
2023/05/09 03:55:42;;;;;;;4.30;3.87;;;10.20;99.90;;;;;;5064077;28;20248;-54
2023/05/09 03:58:08;;;;;;;4.57;3.93;;;10.20;99.90;;;;;;5066572;28;20590;-55
2023/05/09 04:00:34;;;;;;;4.10;3.70;;;10.20;99.90;;;;;;5066309;28;20183;-54
2023/05/09 04:02:59;;;;;;;4.10;3.70;;;10.20;99.90;;;;;;5066012;28;20184;-53
2023/05/09 04:05:26;;;;;;;6.33;3.97;;;10.20;99.90;;;;;;5063248;28;20215;-55
2023/05/09 04:07:51;;;;;;;5.90;3.57;;;10.30;99.90;;;;;;5068315;28;20529;-56
2023/05/09 04:10:17;;;;;;;4.90;3.23;;;10.40;99.90;;;;;;5065613;28;20500;-54
2023/05/09 04:12:43;;;;;;;5.23;3.90;;;10.40;99.90;;;;;;5065949;28;20184;-53
2023/05/09 04:15:09;;;;;;;7.83;4.00;;;10.30;99.90;;;;;;5057116;28;20537;-56
2023/05/09 04:17:35;;;;;;;4.80;3.70;;;10.40;99.90;;;;;;5067510;28;20600;-55
2023/05/09 04:20:02;;;;;;;3.90;3.50;;;10.40;99.90;;;;;;5066719;28;20449;-55
2023/05/09 04:22:28;;;;;;;7.30;3.40;;;10.40;99.90;;;;;;5063450;28;20241;-56
2023/05/09 04:24:53;;;;;;;6.70;4.00;;;10.40;99.90;;;;;;5068991;28;20468;-55
2023/05/09 04:27:19;;;;;;;4.20;3.60;;;10.40;99.90;;;;;;5064707;28;20222;-54
2023/05/09 04:29:45;;;;;;;6.67;3.73;;;10.50;99.90;;;;;;5071221;28;20176;-54
2023/05/09 04:32:11;;;;;;;3.67;3.37;;;10.60;99.90;;;;;;5065650;28;20472;-52
2023/05/09 04:34:36;;;;;;;3.70;3.07;;;10.70;99.90;;;;;;5062754;28;20211;-53
2023/05/09 04:37:02;;;;;;;3.73;3.33;;;10.80;99.90;;;;;;5069124;28;20180;-54
2023/05/09 04:39:29;;;;;;;4.23;3.80;;;10.70;99.90;;;;;;5069316;28;20193;-54
2023/05/09 04:41:54;;;;;;;3.93;3.20;;;10.70;99.90;;;;;;5071464;28;20234;-54
2023/05/09 04:44:21;;;;;;;4.40;3.40;;;10.90;99.90;;;;;;5077241;28;20457;-55
2023/05/09 04:46:47;;;;;;;4.50;3.60;;;11.10;99.90;;;;;;5089087;28;20210;-55
2023/05/09 04:49:12;;;;;;;3.63;3.30;;;11.10;99.90;;;;;;5089176;28;20437;-54
2023/05/09 04:51:38;;;;;;;3.87;3.10;;;11.10;99.90;;;;;;5089351;28;20266;-55
2023/05/09 04:54:03;;;;;;;3.57;3.27;;;11.10;99.90;;;;;;5079041;28;20530;-55
2023/05/09 04:56:29;;;;;;;3.67;3.30;;;11.20;99.90;;;;;;5069135;28;20227;-54
2023/05/09 04:58:54;;;;;;;3.00;2.30;;;11.20;99.90;;;;;;5066979;28;20191;-53
2023/05/09 05:01:20;;;;;;;3.83;3.37;;;11.20;99.90;;;;;;5069093;28;20183;-54
2023/05/09 05:03:46;;;;;;;3.73;3.33;;;11.30;99.90;;;;;;5068980;28;20274;-54
2023/05/09 05:06:11;;;;;;;4.30;3.67;;;11.30;99.90;;;;;;5068715;28;20680;-54
2023/05/09 05:08:37;;;;;;;3.00;2.80;;;11.40;99.90;;;;;;5067884;28;20271;-55
2023/05/09 05:11:02;;;;;;;6.93;3.30;;;11.50;99.90;;;;;;5069135;28;20612;-53
2023/05/09 05:13:28;;;;;;;5.97;3.50;;;11.60;99.90;;;;;;5081170;28;20181;-55
2023/05/09 05:15:55;;;;;;;6.50;3.20;;;11.60;99.90;;;;;;5069638;28;20188;-56
2023/05/09 05:18:20;;;;;;;4.90;3.47;;;11.80;99.90;;;;;;5068622;28;20289;-55
2023/05/09 05:20:46;;;;;;;4.00;3.43;;;11.80;99.90;;;;;;5068788;28;20541;-52
2023/05/09 05:23:12;;;;;;;3.87;3.47;;;11.80;99.90;;;;;;5068927;28;20182;-55
2023/05/09 05:25:37;;;;;;;3.90;3.30;;;11.90;99.90;;;;;;5068476;28;20279;-53
2023/05/09 05:28:03;;;;;;;4.67;3.60;;;11.90;99.90;;;;;;5068992;28;20176;-53
2023/05/09 05:30:29;;;;;;;4.00;3.00;;;12.10;99.90;;;;;;5068945;28;20183;-54
2023/05/09 05:32:55;;;;;;;3.67;3.37;;;12.10;99.90;;;;;;5070044;28;20187;-56
2023/05/09 05:35:22;;;;;;;10.13;4.17;;;12.20;99.90;;;;;;5072301;28;20256;-55
2023/05/09 05:37:48;;;;;;;3.87;3.37;;;12.30;99.90;;;;;;5071935;28;20186;-53
2023/05/09 05:40:13;;;;;;;6.70;3.70;;;12.40;99.90;;;;;;5072277;28;20445;-54
2023/05/09 05:42:39;;;;;;;3.93;2.90;;;12.50;99.90;;;;;;5072588;28;20441;-53
2023/05/09 05:45:05;;;;;;;3.57;3.27;;;12.50;99.90;;;;;;5071734;28;20282;-54
2023/05/09 05:47:32;;;;;;;3.73;3.40;;;12.50;99.90;;;;;;5072116;28;20184;-53
2023/05/09 05:49:58;;;;;;;4.00;3.30;;;12.60;99.90;;;;;;5072149;28;20477;-53
2023/05/09 05:52:25;;;;;;;4.67;4.17;;;12.80;99.90;;;;;;5071925;28;20434;-53
2023/05/09 05:54:52;;;;;;;6.50;3.43;;;12.90;99.90;;;;;;5076804;28;20436;-53
2023/05/09 05:57:17;;;;;;;3.43;3.13;;;13.00;99.90;;;;;;5091989;28;20483;-55
2023/05/09 05:59:43;;;;;;;3.53;3.20;;;12.90;99.90;;;;;;5092486;28;20429;-55
2023/05/09 06:02:08;;;;;;;4.30;3.40;;;13.00;99.90;;;;;;5092017;28;20267;-54
2023/05/09 06:04:34;;;;;;;6.23;3.23;;;13.00;99.90;;;;;;5091861;28;20211;-53
2023/05/09 06:06:59;;;;;;;5.00;3.40;;;13.20;99.90;;;;;;5092110;28;20301;-54
2023/05/09 06:09:25;;;;;;;7.03;3.67;;;13.30;99.90;;;;;;5091783;28;20248;-55
2023/05/09 06:11:51;;;;;;;5.60;3.10;;;13.20;99.90;;;;;;5086149;28;20188;-54
2023/05/09 06:14:16;;;;;;;5.77;3.60;;;13.30;99.90;;;;;;5070258;28;20258;-55
2023/05/09 06:16:42;;;;;;;7.00;3.50;;;13.40;99.90;;;;;;5071512;28;20541;-56
2023/05/09 06:19:07;;;;;;;4.80;3.50;;;13.50;99.90;;;;;;5083503;28;20198;-55
2023/05/09 06:21:33;;;;;;;10.23;3.80;;;13.50;99.90;;;;;;5091687;28;20187;-56
2023/05/09 06:24:01;;;;;;;5.73;3.70;;;13.50;99.90;;;;;;5087373;28;20249;-53
2023/05/09 06:26:26;;;;;;;3.37;3.07;;;13.60;99.90;;;;;;5071670;28;20214;-56
2023/05/09 06:28:52;;;;;;;6.03;3.00;;;13.70;99.90;;;;;;5071330;28;20422;-54
2023/05/09 06:31:18;;;;;;;3.53;3.13;;;13.80;99.90;;;;;;5070915;28;20322;-54
2023/05/09 06:33:43;;;;;;;3.77;3.30;;;14.00;99.90;;;;;;5071250;28;20646;-54
2023/05/09 06:36:09;;;;;;;3.80;3.47;;;14.00;99.90;;;;;;5071280;28;20195;-54
2023/05/09 06:38:35;;;;;;;4.47;3.47;;;14.10;99.90;;;;;;5071379;28;20190;-53
2023/05/09 06:41:00;;;;;;;5.37;3.40;;;14.20;99.90;;;;;;5071162;28;20317;-54
2023/05/09 06:43:26;;;;;;;11.47;4.10;;;14.20;99.90;;;;;;5070599;28;20261;-53
2023/05/09 06:45:51;;;;;;;4.53;3.33;;;14.30;99.90;;;;;;5061997;28;20685;-53
2023/05/09 06:48:17;;;;;;;5.83;3.40;;;14.40;99.90;;;;;;5070849;28;20626;-55
2023/05/09 06:50:43;;;;;;;8.50;3.80;;;14.50;99.90;;;;;;5068536;28;20183;-53
2023/05/09 06:53:08;;;;;;;4.67;3.47;;;14.60;99.90;;;;;;5072625;28;20645;-53
2023/05/09 06:55:34;;;;;;;6.60;3.10;;;14.60;99.90;;;;;;5066672;28;20558;-55
2023/05/09 06:58:00;;;;;;;4.33;3.50;;;14.60;99.90;;;;;;5069418;28;20556;-54
2023/05/09 07:00:25;;;;;;;4.37;3.90;;;14.60;99.90;;;;;;5072864;28;20191;-55
2023/05/09 07:02:51;;;;;;;5.03;3.37;;;14.60;99.90;;;;;;5086556;28;20289;-54
2023/05/09 07:05:17;;;;;;;3.70;3.40;;;14.80;99.90;;;;;;5090499;28;20211;-54
2023/05/09 07:07:44;;;;;;;7.50;3.80;;;14.90;99.90;;;;;;5082782;28;20231;-54
2023/05/09 07:10:10;;;;;;;4.00;3.60;;;15.00;99.90;;;;;;5064058;28;20527;-54
2023/05/09 07:12:35;;;;;;;4.70;3.63;;;15.00;99.90;;;;;;5067368;28;20853;-55
2023/05/09 07:15:01;;;;;;;6.10;3.70;;;15.20;99.90;;;;;;5069164;28;20194;-55
2023/05/09 07:17:28;;;;;;;4.40;3.60;;;15.00;99.90;;;;;;5064993;28;20203;-54
2023/05/09 07:19:54;;;;;;;4.27;3.73;;;15.50;99.90;;;;;;5066263;28;20233;-53
2023/05/09 07:22:20;;;;;;;5.20;3.33;;;15.50;99.90;;;;;;5069709;28;20477;-55
2023/05/09 07:24:46;;;;;;;6.60;4.03;;;15.60;99.90;;;;;;5063274;28;20477;-54
2023/05/09 07:27:12;;;;;;;5.10;3.87;;;15.60;99.90;;;;;;5064382;28;20180;-55
2023/05/09 07:29:37;;;;;;;3.50;3.20;;;15.60;99.90;;;;;;5064424;28;20621;-54
2023/05/09 07:32:03;;;;;;;5.10;3.87;;;15.60;99.90;;;;;;5063976;28;20673;-54
2023/05/09 07:34:29;;;;;;;4.50;3.63;;;15.60;99.90;;;;;;5066654;28;20203;-56
2023/05/09 07:36:55;;;;;;;5.10;3.70;;;15.50;99.90;;;;;;5063265;28;20468;-54
2023/05/09 07:39:20;;;;;;;5.17;3.97;;;15.60;99.90;;;;;;5068391;28;20485;-54
2023/05/09 07:41:46;;;;;;;5.23;3.90;;;15.70;99.90;;;;;;5076752;28;20698;-54
2023/05/09 07:44:11;;;;;;;4.40;3.70;;;15.90;99.90;;;;;;5071533;28;20187;-55
2023/05/09 07:46:39;;;;;;;5.27;4.10;;;16.00;99.90;;;;;;5066184;28;20230;-55
2023/05/09 07:49:05;;;;;;;7.93;3.50;;;16.10;99.90;;;;;;5063618;28;20242;-55
2023/05/09 07:51:31;;;;;;;5.83;3.67;;;16.10;99.90;;;;;;5069443;28;20441;-54
2023/05/09 07:53:56;;;;;;;15.27;5.40;;;16.30;99.90;;;;;;5069606;28;20629;-54
2023/05/09 07:56:22;;;;;;;5.97;3.97;;;16.50;99.90;;;;;;5068083;28;20677;-55
2023/05/09 07:58:48;;;;;;;6.80;2.97;;;16.50;99.90;;;;;;5078375;28;20218;-54
2023/05/09 08:01:14;;;;;;;5.73;3.80;;;16.40;99.90;;;;;;5081523;28;20184;-53
2023/05/09 08:03:40;;;;;;;7.33;3.70;;;16.30;99.90;;;;;;5069594;28;20434;-56
2023/05/09 08:06:06;;;;;;;5.90;2.97;;;16.40;99.90;;;;;;5075138;28;20466;-54
2023/05/09 08:08:32;;;;;;;4.63;3.83;;;16.70;99.90;;;;;;5069091;28;20215;-54
2023/05/09 08:10:58;;;;;;;4.60;4.07;;;16.90;99.90;;;;;;5068691;28;20237;-56
2023/05/09 08:13:23;;;;;;;5.40;4.07;;;16.90;99.90;;;;;;5068205;28;20924;-55
2023/05/09 08:15:49;;;;;;;3.30;3.00;;;16.90;99.90;;;;;;5068486;28;20298;-56
2023/05/09 08:18:15;;;;;;;3.87;3.47;;;16.70;99.90;;;;;;5065870;28;20192;-54
2023/05/09 08:20:40;;;;;;;4.43;3.53;;;16.70;99.90;;;;;;5067221;28;20264;-55
2023/05/09 08:23:06;;;;;;;5.50;3.90;;;16.80;99.90;;;;;;5068842;28;20186;-53
2023/05/09 08:25:32;;;;;;;4.90;3.13;;;16.90;99.90;;;;;;5080831;28;20257;-54
2023/05/09 08:27:58;;;;;;;5.50;3.67;;;17.10;99.90;;;;;;5079042;28;20445;-54
2023/05/09 08:30:23;;;;;;;4.10;3.20;;;17.20;99.90;;;;;;5064520;28;20184;-53
2023/05/09 08:32:49;;;;;;;5.20;3.23;;;17.20;99.90;;;;;;5066250;28;20216;-54
2023/05/09 08:35:15;;;;;;;4.73;3.47;;;17.30;99.90;;;;;;5078794;28;20179;-55
2023/05/09 08:37:41;;;;;;;5.33;3.13;;;17.20;99.90;;;;;;5067338;28;20280;-54
2023/05/09 08:40:07;;;;;;;4.83;2.90;;;17.30;99.90;;;;;;5056955;28;20263;-55
2023/05/09 08:42:35;;;;;;;3.90;3.50;;;17.30;99.90;;;;;;5065989;28;20186;-55
2023/05/09 08:45:05;;;;;;;4.40;3.13;;;17.20;99.90;;;;;;5069110;28;20441;-55
2023/05/09 08:47:34;;;;;;;3.70;3.00;;;17.40;99.90;;;;;;5067223;28;20476;-53
2023/05/09 08:50:02;;;;;;;3.53;2.83;;;17.60;99.90;;;;;;5062104;28;20408;-54
2023/05/09 08:52:32;;;;;;;6.63;3.70;;;17.80;99.90;;;;;;5066705;28;20445;-55
2023/05/09 08:54:59;;;;;;;4.13;3.83;;;18.00;99.90;;;;;;5066680;28;20441;-54
2023/05/09 08:57:26;;;;;;;4.23;3.17;;;18.00;99.90;;;;;;5081791;28;20480;-55
2023/05/09 08:59:52;;;;;;;4.27;3.10;;;18.00;99.90;;;;;;5078693;28;20473;-54
2023/05/09 09:02:18;;;;;;;4.50;3.70;;;18.00;99.90;;;;;;5067257;28;20471;-55
2023/05/09 09:04:44;;;;;;;5.50;3.50;;;18.00;99.90;;;;;;5065093;28;20549;-53
2023/05/09 09:07:12;;;;;;;3.37;2.83;;;17.80;99.90;;;;;;5067968;28;20537;-54
2023/05/09 09:09:43;;;;;;;3.73;2.80;;;17.90;99.90;;;;;;5064496;28;20669;-52
2023/05/09 09:12:09;;;;;;;4.93;3.37;;;17.90;99.90;;;;;;5072692;28;20433;-55
2023/05/09 09:14:38;;;;;;;4.00;3.60;;;18.10;99.90;;;;;;5067613;28;20469;-54
2023/05/09 09:17:06;;;;;;;4.80;3.37;;;18.30;99.90;;;;;;5072245;28;20452;-54
2023/05/09 09:19:34;;;;;;;4.10;3.00;;;18.40;99.90;;;;;;5067079;28;21080;-55
2023/05/09 09:22:03;;;;;;;3.47;3.00;;;18.50;99.90;;;;;;5074253;28;20450;-53
2023/05/09 09:24:30;;;;;;;4.10;3.27;;;18.60;99.90;;;;;;5069035;28;20449;-54
2023/05/09 09:26:57;;;;;;;5.97;3.40;;;18.60;99.90;;;;;;5066292;28;20513;-55
2023/05/09 09:29:23;;;;;;;6.53;3.27;;;18.60;99.90;;;;;;5070385;28;20441;-54
2023/05/09 09:31:53;;;;;;;4.00;3.60;;;18.70;99.90;;;;;;5070725;28;20517;-54
2023/05/09 09:34:21;;;;;;;4.27;3.37;;;18.80;99.90;;;;;;5071205;28;20442;-54
2023/05/09 09:36:47;;;;;;;6.63;3.67;;;19.10;99.90;;;;;;5064819;28;20506;-54
2023/05/09 09:39:13;;;;;;;3.20;2.83;;;19.00;99.90;;;;;;5068892;28;20454;-55
2023/05/09 09:41:40;;;;;;;7.23;3.07;;;19.00;99.90;;;;;;5070148;28;20958;-54
2023/05/09 09:44:07;;;;;;;3.83;3.53;;;19.10;99.90;;;;;;5068164;28;20471;-54
2023/05/09 09:46:53;;;;;;;3.77;3.30;;;19.00;99.90;;;;;;5071455;28;20477;-53
2023/05/09 09:49:23;;;;;;;4.30;3.30;;;18.80;99.90;;;;;;5077968;28;20439;-55
2023/05/09 09:51:57;;;;;;;3.30;3.03;;;18.80;99.90;;;;;;5074368;28;20437;-54
2023/05/09 09:54:26;;;;;;;3.80;3.50;;;18.70;99.90;;;;;;5066819;28;20442;-54
2023/05/09 09:56:53;;;;;;;4.07;3.63;;;18.90;99.90;;;;;;5070907;28;20477;-55
2023/05/09 09:59:26;;;;;;;6.63;4.07;;;19.10;99.90;;;;;;5072017;28;20438;-55
2023/05/09 10:02:00;;;;;;;3.80;3.10;;;19.10;99.90;;;;;;5069684;28;20423;-54
2023/05/09 10:04:30;;;;;;;4.80;4.10;;;19.30;99.90;;;;;;5069394;28;20472;-54
2023/05/09 10:06:59;;;;;;;3.57;3.17;;;19.40;99.90;;;;;;5067642;28;20522;-54
2023/05/09 10:09:26;;;;;;;5.13;3.50;;;19.60;99.90;;;;;;5068836;28;20446;-53
2023/05/09 10:11:54;;;;;;;6.53;3.10;;;19.70;99.90;;;;;;5069776;28;20470;-55
2023/05/09 10:14:25;;;;;;;4.13;3.10;;;19.90;99.90;;;;;;5067131;28;20811;-54
2023/05/09 10:16:54;;;;;;;4.50;3.47;;;20.00;99.90;;;;;;5069929;28;20450;-55
2023/05/09 10:19:21;;;;;;;4.13;3.47;;;19.90;99.90;;;;;;5064981;28;20498;-56
2023/05/09 10:21:51;;;;;;;5.07;3.00;;;19.80;99.90;;;;;;5071520;28;20448;-54
2023/05/09 10:24:26;;;;;;;4.13;3.17;;;19.80;99.90;;;;;;5075522;28;20474;-55
2023/05/09 10:27:02;;;;;;;3.27;2.67;;;19.80;99.90;;;;;;5068192;28;20477;-54
2023/05/09 10:29:30;;;;;;;4.03;3.33;;;19.90;99.90;;;;;;5069832;28;20461;-54
2023/05/09 10:31:58;;;;;;;8.20;3.70;;;20.00;99.90;;;;;;5070625;28;20506;-56
2023/05/09 10:34:27;;;;;;;4.73;3.03;;;20.30;99.90;;;;;;5070760;28;20438;-55
2023/05/09 10:36:53;;;;;;;3.70;3.40;;;20.30;99.90;;;;;;5079775;28;20795;-54
2023/05/09 10:39:21;;;;;;;6.67;3.87;;;20.30;99.90;;;;;;5064347;28;20442;-55
2023/05/09 10:41:48;;;;;;;3.60;3.30;;;20.30;99.90;;;;;;5068078;28;20446;-55
2023/05/09 10:44:14;;;;;;;4.70;2.93;;;20.30;99.90;;;;;;5069355;28;20442;-55
2023/05/09 10:46:41;;;;;;;5.87;3.10;;;20.20;99.90;;;;;;5069118;28;20474;-54
2023/05/09 10:49:07;;;;;;;4.33;3.13;;;20.10;99.90;;;;;;5063138;28;20458;-55
2023/05/09 10:51:33;;;;;;;3.50;3.20;;;20.30;99.90;;;;;;5067987;28;20954;-55
2023/05/09 10:53:59;;;;;;;9.10;3.87;;;20.50;99.90;;;;;;5073349;28;20477;-54
2023/05/09 10:56:32;;;;;;;3.70;3.17;;;20.50;99.90;;;;;;5070338;28;20473;-54
2023/05/09 10:59:01;;;;;;;3.30;3.00;;;20.60;99.90;;;;;;5068848;28;20187;-54
2023/05/09 11:01:35;;;;;;;3.23;2.70;;;20.50;99.90;;;;;;5070318;28;20454;-53
2023/05/09 11:04:09;;;;;;;3.90;2.83;;;20.50;99.90;;;;;;5070527;28;20471;-53
2023/05/09 11:06:47;;;;;;;5.30;3.40;;;20.20;99.90;;;;;;5069214;28;20815;-56
2023/05/09 11:09:32;;;;;;;5.40;3.30;;;20.20;99.90;;;;;;5067734;28;20879;-54
2023/05/09 11:12:11;;;;;;;4.67;3.10;;;20.10;99.90;;;;;;5069387;28;20445;-54
2023/05/09 11:14:44;;;;;;;5.87;3.13;;;20.20;99.90;;;;;;5067824;28;20936;-53
2023/05/09 11:17:17;;;;;;;3.10;2.87;;;20.50;99.90;;;;;;5068335;28;20449;-55
2023/05/09 11:19:45;;;;;;;6.40;2.93;;;20.60;99.90;;;;;;5064270;28;20883;-54
2023/05/09 11:22:29;;;;;;;3.60;3.03;;;20.40;99.90;;;;;;5065272;28;21156;-54
2023/05/09 11:25:09;;;;;;;5.57;2.87;;;20.30;99.90;;;;;;5063586;28;20454;-55
2023/05/09 11:27:42;;;;;;;2.93;2.57;;;20.30;99.90;;;;;;5077928;28;20488;-55
2023/05/09 11:30:09;;;;;;;3.37;2.90;;;20.50;99.90;;;;;;5068102;28;20446;-54
2023/05/09 11:32:53;;;;;;;3.50;2.50;;;20.50;99.90;;;;;;5077745;28;20473;-54
2023/05/09 11:35:21;;;;;;;3.07;2.77;;;20.60;99.90;;;;;;5064640;28;20459;-56
2023/05/09 11:37:51;;;;;;;4.20;3.23;;;20.70;99.90;;;;;;5067252;28;20446;-54
2023/05/09 11:40:19;;;;;;;4.17;2.90;;;20.70;99.90;;;;;;5067195;28;20446;-54
2023/05/09 11:42:52;;;;;;;4.90;2.73;;;20.80;99.90;;;;;;5065901;28;20453;-55
2023/05/09 11:45:18;;;;;;;4.83;2.40;;;20.70;99.90;;;;;;5068886;28;20461;-56
2023/05/09 11:47:46;;;;;;;3.80;2.33;;;20.70;99.90;;;;;;5062361;28;21054;-55
2023/05/09 11:50:13;;;;;;;4.10;2.87;;;20.70;99.90;;;;;;5067455;28;20495;-54
2023/05/09 11:52:40;;;;;;;8.77;3.03;;;21.00;99.90;;;;;;5061979;28;21095;-54
2023/05/09 11:55:12;;;;;;;4.90;2.50;;;20.90;99.90;;;;;;5064278;28;20511;-54
2023/05/09 11:57:47;;;;;;;2.67;2.43;;;21.00;99.90;;;;;;5064392;28;20507;-55
2023/05/09 12:00:19;;;;;;;4.13;2.70;;;21.00;99.90;;;;;;5069821;28;20811;-64
2023/05/09 12:02:46;;;;;;;3.27;2.53;;;20.80;99.90;;;;;;5057714;28;20871;-54
2023/05/09 12:05:17;;;;;;;4.33;3.07;;;20.70;99.90;;;;;;5064126;28;20898;-55
2023/05/09 12:07:43;;;;;;;3.40;2.60;;;20.70;99.90;;;;;;5068121;28;20464;-53
2023/05/09 12:10:12;;;;;;;2.20;1.90;;;20.70;99.90;;;;;;5067532;28;20481;-56
2023/05/09 12:12:51;;;;;;;2.37;2.17;;;20.70;99.90;;;;;;5061752;28;20446;-54
2023/05/09 12:15:17;;;;;;;3.60;2.63;;;20.70;99.90;;;;;;5069298;28;20772;-55
2023/05/09 12:17:45;;;;;;;4.27;2.70;;;20.80;99.90;;;;;;5068983;28;20469;-55
2023/05/09 12:20:11;;;;;;;3.07;2.80;;;21.00;99.90;;;;;;5069057;28;20558;-54
2023/05/09 12:22:37;;;;;;;3.33;2.53;;;21.00;99.90;;;;;;5076670;28;20446;-56
2023/05/09 12:25:09;;;;;;;3.60;2.27;;;21.00;99.90;;;;;;5088635;28;20448;-53
2023/05/09 12:27:36;;;;;;;4.53;2.40;;;21.00;99.90;;;;;;5070419;28;20179;-55
2023/05/09 12:30:08;;;;;;;3.60;2.40;;;21.00;99.90;;;;;;5068769;28;20464;-54
2023/05/09 12:32:35;;;;;;;4.00;2.73;;;21.10;99.90;;;;;;5069089;28;20426;-54
2023/05/09 12:35:01;;;;;;;3.70;2.90;;;20.90;99.90;;;;;;5068904;28;20430;-53
2023/05/09 12:37:33;;;;;;;4.13;2.50;;;20.90;99.90;;;;;;5068871;28;20449;-54
2023/05/09 12:40:11;;;;;;;5.30;3.00;;;20.90;99.90;;;;;;5065924;28;20211;-55
2023/05/09 12:42:38;;;;;;;4.10;2.40;;;20.80;99.90;;;;;;5068315;28;20467;-55
2023/05/09 12:45:07;;;;;;;5.70;2.60;;;20.80;99.90;;;;;;5066069;28;20449;-55
2023/05/09 12:47:33;;;;;;;2.80;2.03;;;20.80;99.90;;;;;;5065879;28;20862;-53